PILOTS ONLINE: 317    ATC ONLINE: 39

NZWN

Wellington International Airport

Location

IATA WLG
City Wellington
Country  New Zealand
Latitude 41° 19' 37" S
Longitude 174° 48' 17" E
Elevation 41 ft
Type Large Airport

Map

Weather

METAR
2014/08/28 10:30
NZWN 281030Z AUTO 06006KT 9999 NCD 10/04 Q1035 NOSIG
TAF
2014/08/28 06:06
TAF NZWN 280503Z 2806/2906 20010KT CAVOK 
      BECMG 2807/2809 03005KT 
      BECMG 2822/2900 17010KT

Runways

16/34 6352 ft / 148 ft

Outbound flights

Callsign Flying to Pilot ATD/STD ETA Aircraft

Inbound flights

Callsign Flying from Pilot ATD ETA Aircraft
UAE5117  YSSY - Sydney
Australia
Deane Smith
1079490
09:33 09:33 B737